sensor_id;sensor_type;location;lat;lon;timestamp;P1;durP1;ratioP1;P2;durP2;ratioP2
13388;SDS011;6764;53.250;10.410;2024-01-27T00:01:31;23.85;;;6.55;;
13388;SDS011;6764;53.250;10.410;2024-01-27T00:03:57;27.45;;;5.53;;
13388;SDS011;6764;53.250;10.410;2024-01-27T00:06:23;27.75;;;6.38;;
13388;SDS011;6764;53.250;10.410;2024-01-27T00:08:48;24.98;;;5.97;;
13388;SDS011;6764;53.250;10.410;2024-01-27T00:11:14;21.63;;;5.43;;
13388;SDS011;6764;53.250;10.410;2024-01-27T00:13:40;27.13;;;6.40;;
13388;SDS011;6764;53.250;10.410;2024-01-27T00:16:05;29.05;;;6.18;;
13388;SDS011;6764;53.250;10.410;2024-01-27T00:18:32;20.45;;;5.15;;
13388;SDS011;6764;53.250;10.410;2024-01-27T00:20:57;26.92;;;6.10;;
13388;SDS011;6764;53.250;10.410;2024-01-27T00:23:23;28.03;;;7.10;;
13388;SDS011;6764;53.250;10.410;2024-01-27T00:25:48;29.27;;;6.30;;
13388;SDS011;6764;53.250;10.410;2024-01-27T00:28:14;24.10;;;6.10;;
13388;SDS011;6764;53.250;10.410;2024-01-27T00:30:39;25.00;;;6.10;;
13388;SDS011;6764;53.250;10.410;2024-01-27T00:33:05;26.57;;;6.40;;
13388;SDS011;6764;53.250;10.410;2024-01-27T00:35:31;25.13;;;5.93;;
13388;SDS011;6764;53.250;10.410;2024-01-27T00:37:57;29.23;;;6.20;;
13388;SDS011;6764;53.250;10.410;2024-01-27T00:40:23;24.05;;;5.82;;
13388;SDS011;6764;53.250;10.410;2024-01-27T00:42:48;22.08;;;6.03;;
13388;SDS011;6764;53.250;10.410;2024-01-27T00:45:14;25.83;;;6.27;;
13388;SDS011;6764;53.250;10.410;2024-01-27T00:47:39;28.98;;;5.85;;
13388;SDS011;6764;53.250;10.410;2024-01-27T00:50:05;23.50;;;5.75;;
13388;SDS011;6764;53.250;10.410;2024-01-27T00:52:33;24.48;;;6.13;;
13388;SDS011;6764;53.250;10.410;2024-01-27T00:54:59;20.85;;;5.90;;
13388;SDS011;6764;53.250;10.410;2024-01-27T00:57:25;22.45;;;5.80;;
13388;SDS011;6764;53.250;10.410;2024-01-27T00:59:50;23.70;;;5.13;;
13388;SDS011;6764;53.250;10.410;2024-01-27T01:02:16;25.77;;;6.73;;
13388;SDS011;6764;53.250;10.410;2024-01-27T01:04:42;24.77;;;6.05;;
13388;SDS011;6764;53.250;10.410;2024-01-27T01:07:07;23.30;;;6.00;;
13388;SDS011;6764;53.250;10.410;2024-01-27T01:09:33;27.30;;;5.93;;
13388;SDS011;6764;53.250;10.410;2024-01-27T01:11:59;27.50;;;6.20;;
13388;SDS011;6764;53.250;10.410;2024-01-27T01:14:24;27.42;;;6.43;;
13388;SDS011;6764;53.250;10.410;2024-01-27T01:16:50;25.67;;;6.07;;
13388;SDS011;6764;53.250;10.410;2024-01-27T01:19:16;20.63;;;5.23;;
13388;SDS011;6764;53.250;10.410;2024-01-27T01:21:41;24.70;;;6.13;;
13388;SDS011;6764;53.250;10.410;2024-01-27T01:24:07;26.65;;;6.32;;
13388;SDS011;6764;53.250;10.410;2024-01-27T01:26:32;26.43;;;6.07;;
13388;SDS011;6764;53.250;10.410;2024-01-27T01:28:58;25.50;;;6.03;;
13388;SDS011;6764;53.250;10.410;2024-01-27T01:31:24;24.13;;;5.70;;
13388;SDS011;6764;53.250;10.410;2024-01-27T01:33:49;23.20;;;5.55;;
13388;SDS011;6764;53.250;10.410;2024-01-27T01:36:15;23.17;;;5.30;;
13388;SDS011;6764;53.250;10.410;2024-01-27T01:38:40;28.13;;;6.00;;
13388;SDS011;6764;53.250;10.410;2024-01-27T01:41:06;22.15;;;6.65;;
13388;SDS011;6764;53.250;10.410;2024-01-27T01:43:32;20.47;;;5.77;;
13388;SDS011;6764;53.250;10.410;2024-01-27T01:45:57;23.07;;;5.43;;
13388;SDS011;6764;53.250;10.410;2024-01-27T01:48:23;22.63;;;5.50;;
13388;SDS011;6764;53.250;10.410;2024-01-27T01:50:49;21.17;;;5.80;;
13388;SDS011;6764;53.250;10.410;2024-01-27T01:53:15;26.58;;;6.65;;
13388;SDS011;6764;53.250;10.410;2024-01-27T01:55:41;25.02;;;5.82;;
13388;SDS011;6764;53.250;10.410;2024-01-27T01:58:06;25.25;;;5.95;;
13388;SDS011;6764;53.250;10.410;2024-01-27T02:00:32;27.70;;;6.27;;
13388;SDS011;6764;53.250;10.410;2024-01-27T02:02:58;26.00;;;6.27;;
13388;SDS011;6764;53.250;10.410;2024-01-27T02:05:23;27.17;;;6.22;;
13388;SDS011;6764;53.250;10.410;2024-01-27T02:07:49;24.17;;;6.03;;
13388;SDS011;6764;53.250;10.410;2024-01-27T02:10:16;21.02;;;5.47;;
13388;SDS011;6764;53.250;10.410;2024-01-27T02:12:43;22.27;;;5.55;;
13388;SDS011;6764;53.250;10.410;2024-01-27T02:15:12;22.58;;;5.80;;
13388;SDS011;6764;53.250;10.410;2024-01-27T02:17:39;23.73;;;5.80;;
13388;SDS011;6764;53.250;10.410;2024-01-27T02:20:05;26.13;;;6.05;;
13388;SDS011;6764;53.250;10.410;2024-01-27T02:22:32;23.92;;;5.65;;
13388;SDS011;6764;53.250;10.410;2024-01-27T02:25:02;22.85;;;6.15;;
13388;SDS011;6764;53.250;10.410;2024-01-27T02:27:28;24.52;;;5.68;;
13388;SDS011;6764;53.250;10.410;2024-01-27T02:29:54;26.23;;;5.50;;
13388;SDS011;6764;53.250;10.410;2024-01-27T02:32:20;22.73;;;5.90;;
13388;SDS011;6764;53.250;10.410;2024-01-27T02:34:45;21.27;;;5.43;;
13388;SDS011;6764;53.250;10.410;2024-01-27T02:37:11;27.00;;;5.72;;
13388;SDS011;6764;53.250;10.410;2024-01-27T02:39:37;24.45;;;5.65;;
13388;SDS011;6764;53.250;10.410;2024-01-27T02:42:03;28.13;;;5.45;;
13388;SDS011;6764;53.250;10.410;2024-01-27T02:44:29;24.05;;;5.97;;
13388;SDS011;6764;53.250;10.410;2024-01-27T02:46:54;19.73;;;4.90;;
13388;SDS011;6764;53.250;10.410;2024-01-27T02:49:20;22.53;;;5.00;;
13388;SDS011;6764;53.250;10.410;2024-01-27T02:51:45;24.55;;;5.85;;
13388;SDS011;6764;53.250;10.410;2024-01-27T02:54:12;22.08;;;5.22;;
13388;SDS011;6764;53.250;10.410;2024-01-27T02:56:38;20.25;;;5.20;;
13388;SDS011;6764;53.250;10.410;2024-01-27T02:59:04;24.13;;;5.50;;
13388;SDS011;6764;53.250;10.410;2024-01-27T03:01:29;23.02;;;5.53;;
13388;SDS011;6764;53.250;10.410;2024-01-27T03:03:55;21.75;;;5.97;;
13388;SDS011;6764;53.250;10.410;2024-01-27T03:06:20;25.20;;;5.60;;
13388;SDS011;6764;53.250;10.410;2024-01-27T03:08:46;21.30;;;4.97;;
13388;SDS011;6764;53.250;10.410;2024-01-27T03:11:12;20.10;;;5.65;;
13388;SDS011;6764;53.250;10.410;2024-01-27T03:13:37;21.50;;;5.13;;
13388;SDS011;6764;53.250;10.410;2024-01-27T03:16:09;23.83;;;5.50;;
13388;SDS011;6764;53.250;10.410;2024-01-27T03:18:36;24.67;;;5.95;;
13388;SDS011;6764;53.250;10.410;2024-01-27T03:21:02;19.20;;;5.50;;
13388;SDS011;6764;53.250;10.410;2024-01-27T03:23:28;22.40;;;5.17;;
13388;SDS011;6764;53.250;10.410;2024-01-27T03:25:54;23.20;;;5.83;;
13388;SDS011;6764;53.250;10.410;2024-01-27T03:28:19;21.33;;;5.18;;
13388;SDS011;6764;53.250;10.410;2024-01-27T03:30:45;25.10;;;5.78;;
13388;SDS011;6764;53.250;10.410;2024-01-27T03:33:11;21.13;;;4.85;;
13388;SDS011;6764;53.250;10.410;2024-01-27T03:35:37;23.40;;;5.60;;
13388;SDS011;6764;53.250;10.410;2024-01-27T03:38:05;24.55;;;6.20;;
13388;SDS011;6764;53.250;10.410;2024-01-27T03:40:31;21.83;;;5.82;;
13388;SDS011;6764;53.250;10.410;2024-01-27T03:42:56;27.80;;;5.82;;
13388;SDS011;6764;53.250;10.410;2024-01-27T03:45:22;27.87;;;6.17;;
13388;SDS011;6764;53.250;10.410;2024-01-27T03:47:48;22.52;;;5.85;;
13388;SDS011;6764;53.250;10.410;2024-01-27T03:50:13;25.17;;;5.82;;
13388;SDS011;6764;53.250;10.410;2024-01-27T03:52:39;28.73;;;6.20;;
13388;SDS011;6764;53.250;10.410;2024-01-27T03:55:04;20.13;;;5.30;;
13388;SDS011;6764;53.250;10.410;2024-01-27T03:57:30;24.63;;;6.05;;
13388;SDS011;6764;53.250;10.410;2024-01-27T03:59:56;21.90;;;5.32;;
13388;SDS011;6764;53.250;10.410;2024-01-27T04:02:22;22.88;;;5.28;;
13388;SDS011;6764;53.250;10.410;2024-01-27T04:04:47;22.90;;;5.50;;
13388;SDS011;6764;53.250;10.410;2024-01-27T04:07:13;21.83;;;5.93;;
13388;SDS011;6764;53.250;10.410;2024-01-27T04:09:39;20.30;;;5.70;;
13388;SDS011;6764;53.250;10.410;2024-01-27T04:12:04;21.10;;;5.68;;
13388;SDS011;6764;53.250;10.410;2024-01-27T04:14:30;23.88;;;6.00;;
13388;SDS011;6764;53.250;10.410;2024-01-27T04:16:56;25.33;;;6.70;;
13388;SDS011;6764;53.250;10.410;2024-01-27T04:19:21;24.40;;;6.07;;
13388;SDS011;6764;53.250;10.410;2024-01-27T04:21:47;24.80;;;5.78;;
13388;SDS011;6764;53.250;10.410;2024-01-27T04:24:12;23.93;;;5.47;;
13388;SDS011;6764;53.250;10.410;2024-01-27T04:26:38;25.97;;;6.17;;
13388;SDS011;6764;53.250;10.410;2024-01-27T04:29:04;20.30;;;4.68;;
13388;SDS011;6764;53.250;10.410;2024-01-27T04:31:29;27.45;;;5.82;;
13388;SDS011;6764;53.250;10.410;2024-01-27T04:33:56;26.70;;;5.77;;
13388;SDS011;6764;53.250;10.410;2024-01-27T04:36:29;28.77;;;5.80;;
13388;SDS011;6764;53.250;10.410;2024-01-27T04:38:54;27.92;;;5.80;;
13388;SDS011;6764;53.250;10.410;2024-01-27T04:41:20;24.33;;;5.68;;
13388;SDS011;6764;53.250;10.410;2024-01-27T04:43:46;28.35;;;5.93;;
13388;SDS011;6764;53.250;10.410;2024-01-27T04:46:12;26.25;;;7.03;;
13388;SDS011;6764;53.250;10.410;2024-01-27T04:48:37;26.13;;;5.90;;
13388;SDS011;6764;53.250;10.410;2024-01-27T04:51:03;24.08;;;5.82;;
13388;SDS011;6764;53.250;10.410;2024-01-27T04:53:28;22.05;;;6.05;;
13388;SDS011;6764;53.250;10.410;2024-01-27T04:55:54;24.57;;;6.27;;
13388;SDS011;6764;53.250;10.410;2024-01-27T04:58:20;25.53;;;5.67;;
13388;SDS011;6764;53.250;10.410;2024-01-27T05:00:46;25.50;;;6.40;;
13388;SDS011;6764;53.250;10.410;2024-01-27T05:03:11;24.23;;;6.43;;
13388;SDS011;6764;53.250;10.410;2024-01-27T05:05:41;28.73;;;7.18;;
13388;SDS011;6764;53.250;10.410;2024-01-27T05:08:08;28.42;;;7.28;;
13388;SDS011;6764;53.250;10.410;2024-01-27T05:10:34;28.48;;;6.43;;
13388;SDS011;6764;53.250;10.410;2024-01-27T05:13:00;25.40;;;5.63;;
13388;SDS011;6764;53.250;10.410;2024-01-27T05:15:26;25.53;;;5.87;;
13388;SDS011;6764;53.250;10.410;2024-01-27T05:17:52;29.88;;;5.78;;
13388;SDS011;6764;53.250;10.410;2024-01-27T05:20:17;27.23;;;5.90;;
13388;SDS011;6764;53.250;10.410;2024-01-27T05:22:44;32.03;;;8.55;;
13388;SDS011;6764;53.250;10.410;2024-01-27T05:25:10;30.90;;;6.65;;
13388;SDS011;6764;53.250;10.410;2024-01-27T05:27:39;29.27;;;6.25;;
13388;SDS011;6764;53.250;10.410;2024-01-27T05:30:05;28.45;;;6.85;;
13388;SDS011;6764;53.250;10.410;2024-01-27T05:32:31;32.13;;;7.00;;
13388;SDS011;6764;53.250;10.410;2024-01-27T05:34:57;25.63;;;5.70;;
13388;SDS011;6764;53.250;10.410;2024-01-27T05:37:23;28.85;;;6.60;;
13388;SDS011;6764;53.250;10.410;2024-01-27T05:39:48;25.40;;;6.47;;
13388;SDS011;6764;53.250;10.410;2024-01-27T05:42:14;25.92;;;6.38;;
13388;SDS011;6764;53.250;10.410;2024-01-27T05:44:39;29.67;;;6.93;;
13388;SDS011;6764;53.250;10.410;2024-01-27T05:47:05;26.77;;;6.25;;
13388;SDS011;6764;53.250;10.410;2024-01-27T05:49:31;23.85;;;6.10;;
13388;SDS011;6764;53.250;10.410;2024-01-27T05:51:57;27.42;;;6.20;;
13388;SDS011;6764;53.250;10.410;2024-01-27T05:54:23;22.90;;;6.03;;
13388;SDS011;6764;53.250;10.410;2024-01-27T05:56:49;26.90;;;6.50;;
13388;SDS011;6764;53.250;10.410;2024-01-27T05:59:15;25.25;;;6.15;;
13388;SDS011;6764;53.250;10.410;2024-01-27T06:01:41;24.33;;;5.77;;
13388;SDS011;6764;53.250;10.410;2024-01-27T06:04:08;30.42;;;6.32;;
13388;SDS011;6764;53.250;10.410;2024-01-27T06:06:34;27.92;;;6.80;;
13388;SDS011;6764;53.250;10.410;2024-01-27T06:09:02;22.77;;;5.70;;
13388;SDS011;6764;53.250;10.410;2024-01-27T06:11:28;22.20;;;5.75;;
13388;SDS011;6764;53.250;10.410;2024-01-27T06:13:55;30.50;;;6.90;;
13388;SDS011;6764;53.250;10.410;2024-01-27T06:16:20;29.40;;;6.55;;
13388;SDS011;6764;53.250;10.410;2024-01-27T06:18:46;29.65;;;6.63;;
13388;SDS011;6764;53.250;10.410;2024-01-27T06:21:12;22.70;;;5.67;;
13388;SDS011;6764;53.250;10.410;2024-01-27T06:23:38;22.33;;;6.25;;
13388;SDS011;6764;53.250;10.410;2024-01-27T06:26:06;23.70;;;5.73;;
13388;SDS011;6764;53.250;10.410;2024-01-27T06:28:32;27.05;;;6.45;;
13388;SDS011;6764;53.250;10.410;2024-01-27T06:30:59;24.02;;;6.28;;
13388;SDS011;6764;53.250;10.410;2024-01-27T06:33:28;24.05;;;6.30;;
13388;SDS011;6764;53.250;10.410;2024-01-27T06:35:54;25.77;;;6.80;;
13388;SDS011;6764;53.250;10.410;2024-01-27T06:38:20;23.63;;;6.07;;
13388;SDS011;6764;53.250;10.410;2024-01-27T06:40:45;28.27;;;6.70;;
13388;SDS011;6764;53.250;10.410;2024-01-27T06:43:12;25.92;;;6.38;;
13388;SDS011;6764;53.250;10.410;2024-01-27T06:45:38;28.98;;;6.63;;
13388;SDS011;6764;53.250;10.410;2024-01-27T06:48:05;28.83;;;6.93;;
13388;SDS011;6764;53.250;10.410;2024-01-27T06:50:31;24.63;;;6.60;;
13388;SDS011;6764;53.250;10.410;2024-01-27T06:52:57;25.23;;;6.80;;
13388;SDS011;6764;53.250;10.410;2024-01-27T06:55:23;25.85;;;5.80;;
13388;SDS011;6764;53.250;10.410;2024-01-27T06:57:48;26.83;;;6.38;;
13388;SDS011;6764;53.250;10.410;2024-01-27T07:00:14;22.43;;;5.57;;
13388;SDS011;6764;53.250;10.410;2024-01-27T07:02:40;28.65;;;6.40;;
13388;SDS011;6764;53.250;10.410;2024-01-27T07:05:07;25.42;;;5.57;;
13388;SDS011;6764;53.250;10.410;2024-01-27T07:07:33;22.48;;;5.35;;
13388;SDS011;6764;53.250;10.410;2024-01-27T07:09:59;29.53;;;6.37;;
13388;SDS011;6764;53.250;10.410;2024-01-27T07:12:24;23.77;;;6.37;;
13388;SDS011;6764;53.250;10.410;2024-01-27T07:14:50;23.95;;;5.70;;
13388;SDS011;6764;53.250;10.410;2024-01-27T07:17:22;26.25;;;6.38;;
13388;SDS011;6764;53.250;10.410;2024-01-27T07:19:47;24.03;;;6.27;;
13388;SDS011;6764;53.250;10.410;2024-01-27T07:22:13;22.33;;;5.97;;
13388;SDS011;6764;53.250;10.410;2024-01-27T07:24:39;24.02;;;6.20;;
13388;SDS011;6764;53.250;10.410;2024-01-27T07:27:04;23.55;;;6.03;;
13388;SDS011;6764;53.250;10.410;2024-01-27T07:29:30;22.60;;;5.50;;
13388;SDS011;6764;53.250;10.410;2024-01-27T07:31:55;23.80;;;6.17;;
13388;SDS011;6764;53.250;10.410;2024-01-27T07:34:21;25.10;;;5.72;;
13388;SDS011;6764;53.250;10.410;2024-01-27T07:36:47;24.70;;;5.60;;
13388;SDS011;6764;53.250;10.410;2024-01-27T07:39:14;24.35;;;6.18;;
13388;SDS011;6764;53.250;10.410;2024-01-27T07:41:40;24.77;;;6.43;;
13388;SDS011;6764;53.250;10.410;2024-01-27T07:44:09;24.40;;;6.55;;
13388;SDS011;6764;53.250;10.410;2024-01-27T07:46:36;27.48;;;6.50;;
13388;SDS011;6764;53.250;10.410;2024-01-27T07:49:08;25.33;;;6.00;;
13388;SDS011;6764;53.250;10.410;2024-01-27T07:51:34;23.60;;;6.30;;
13388;SDS011;6764;53.250;10.410;2024-01-27T07:54:00;23.23;;;6.07;;
13388;SDS011;6764;53.250;10.410;2024-01-27T07:56:26;23.33;;;5.93;;
13388;SDS011;6764;53.250;10.410;2024-01-27T07:58:52;21.33;;;5.70;;
13388;SDS011;6764;53.250;10.410;2024-01-27T08:01:19;23.48;;;5.53;;
13388;SDS011;6764;53.250;10.410;2024-01-27T08:03:45;21.38;;;5.75;;
13388;SDS011;6764;53.250;10.410;2024-01-27T08:06:14;19.35;;;5.78;;
13388;SDS011;6764;53.250;10.410;2024-01-27T08:08:47;22.10;;;5.63;;
13388;SDS011;6764;53.250;10.410;2024-01-27T08:11:13;24.23;;;6.80;;
13388;SDS011;6764;53.250;10.410;2024-01-27T08:13:40;21.73;;;5.60;;
13388;SDS011;6764;53.250;10.410;2024-01-27T08:16:06;20.58;;;5.50;;
13388;SDS011;6764;53.250;10.410;2024-01-27T08:18:35;22.70;;;5.65;;
13388;SDS011;6764;53.250;10.410;2024-01-27T08:21:01;26.65;;;6.43;;
13388;SDS011;6764;53.250;10.410;2024-01-27T08:23:28;19.27;;;5.60;;
13388;SDS011;6764;53.250;10.410;2024-01-27T08:25:53;17.27;;;5.75;;
13388;SDS011;6764;53.250;10.410;2024-01-27T08:28:19;23.47;;;5.63;;
13388;SDS011;6764;53.250;10.410;2024-01-27T08:30:45;22.67;;;6.13;;
13388;SDS011;6764;53.250;10.410;2024-01-27T08:33:10;21.08;;;5.82;;
13388;SDS011;6764;53.250;10.410;2024-01-27T08:35:36;19.95;;;5.85;;
13388;SDS011;6764;53.250;10.410;2024-01-27T08:38:02;24.92;;;5.97;;
13388;SDS011;6764;53.250;10.410;2024-01-27T08:40:29;23.63;;;5.95;;
13388;SDS011;6764;53.250;10.410;2024-01-27T08:42:54;19.67;;;6.00;;
13388;SDS011;6764;53.250;10.410;2024-01-27T08:45:20;20.57;;;5.53;;
13388;SDS011;6764;53.250;10.410;2024-01-27T08:47:45;19.70;;;6.00;;
13388;SDS011;6764;53.250;10.410;2024-01-27T08:50:11;22.73;;;6.30;;
13388;SDS011;6764;53.250;10.410;2024-01-27T08:52:37;23.27;;;5.80;;
13388;SDS011;6764;53.250;10.410;2024-01-27T08:55:03;20.23;;;5.53;;
13388;SDS011;6764;53.250;10.410;2024-01-27T08:57:29;22.30;;;5.20;;
13388;SDS011;6764;53.250;10.410;2024-01-27T08:59:54;20.70;;;5.07;;
13388;SDS011;6764;53.250;10.410;2024-01-27T09:02:20;18.48;;;5.68;;
13388;SDS011;6764;53.250;10.410;2024-01-27T09:04:46;20.83;;;5.70;;
13388;SDS011;6764;53.250;10.410;2024-01-27T09:07:11;18.00;;;5.00;;
13388;SDS011;6764;53.250;10.410;2024-01-27T09:09:37;20.50;;;4.90;;
13388;SDS011;6764;53.250;10.410;2024-01-27T09:12:05;21.63;;;5.30;;
13388;SDS011;6764;53.250;10.410;2024-01-27T09:14:31;20.50;;;4.75;;
13388;SDS011;6764;53.250;10.410;2024-01-27T09:16:58;19.05;;;5.15;;
13388;SDS011;6764;53.250;10.410;2024-01-27T09:19:25;18.90;;;5.05;;
13388;SDS011;6764;53.250;10.410;2024-01-27T09:21:50;17.07;;;5.57;;
13388;SDS011;6764;53.250;10.410;2024-01-27T09:24:16;19.27;;;5.47;;
13388;SDS011;6764;53.250;10.410;2024-01-27T09:26:41;19.20;;;5.60;;
13388;SDS011;6764;53.250;10.410;2024-01-27T09:29:07;18.03;;;5.57;;
13388;SDS011;6764;53.250;10.410;2024-01-27T09:31:34;21.60;;;5.78;;
13388;SDS011;6764;53.250;10.410;2024-01-27T09:33:59;21.17;;;7.55;;
13388;SDS011;6764;53.250;10.410;2024-01-27T09:36:25;21.77;;;5.25;;
13388;SDS011;6764;53.250;10.410;2024-01-27T09:38:51;15.38;;;4.80;;
13388;SDS011;6764;53.250;10.410;2024-01-27T09:41:17;19.13;;;5.45;;
13388;SDS011;6764;53.250;10.410;2024-01-27T09:43:43;14.30;;;4.72;;
13388;SDS011;6764;53.250;10.410;2024-01-27T09:46:19;19.63;;;5.63;;
13388;SDS011;6764;53.250;10.410;2024-01-27T09:48:44;21.57;;;7.20;;
13388;SDS011;6764;53.250;10.410;2024-01-27T09:51:10;19.77;;;5.23;;
13388;SDS011;6764;53.250;10.410;2024-01-27T09:53:36;18.50;;;5.53;;
13388;SDS011;6764;53.250;10.410;2024-01-27T09:56:02;19.27;;;5.30;;
13388;SDS011;6764;53.250;10.410;2024-01-27T09:58:29;18.27;;;5.20;;
13388;SDS011;6764;53.250;10.410;2024-01-27T10:00:56;20.17;;;5.63;;
13388;SDS011;6764;53.250;10.410;2024-01-27T10:03:26;22.23;;;5.22;;
13388;SDS011;6764;53.250;10.410;2024-01-27T10:05:53;18.80;;;5.77;;
13388;SDS011;6764;53.250;10.410;2024-01-27T10:08:21;14.55;;;4.47;;
13388;SDS011;6764;53.250;10.410;2024-01-27T10:10:47;17.38;;;4.82;;
13388;SDS011;6764;53.250;10.410;2024-01-27T10:13:16;13.80;;;4.70;;
13388;SDS011;6764;53.250;10.410;2024-01-27T10:15:42;19.35;;;5.32;;
13388;SDS011;6764;53.250;10.410;2024-01-27T10:18:08;22.17;;;5.15;;
13388;SDS011;6764;53.250;10.410;2024-01-27T10:20:39;18.83;;;5.22;;
13388;SDS011;6764;53.250;10.410;2024-01-27T10:23:12;16.17;;;4.75;;
13388;SDS011;6764;53.250;10.410;2024-01-27T10:25:38;19.73;;;5.63;;
13388;SDS011;6764;53.250;10.410;2024-01-27T10:28:05;17.45;;;5.03;;
13388;SDS011;6764;53.250;10.410;2024-01-27T10:30:33;17.27;;;5.15;;
13388;SDS011;6764;53.250;10.410;2024-01-27T10:32:58;16.70;;;4.93;;
13388;SDS011;6764;53.250;10.410;2024-01-27T10:35:24;13.75;;;5.00;;
13388;SDS011;6764;53.250;10.410;2024-01-27T10:37:52;18.15;;;5.18;;
13388;SDS011;6764;53.250;10.410;2024-01-27T10:40:18;18.02;;;6.22;;
13388;SDS011;6764;53.250;10.410;2024-01-27T10:42:44;16.58;;;4.45;;
13388;SDS011;6764;53.250;10.410;2024-01-27T10:45:11;16.92;;;4.65;;
13388;SDS011;6764;53.250;10.410;2024-01-27T10:47:38;17.85;;;5.03;;
13388;SDS011;6764;53.250;10.410;2024-01-27T10:50:07;16.50;;;5.10;;
13388;SDS011;6764;53.250;10.410;2024-01-27T10:52:37;15.63;;;4.93;;
13388;SDS011;6764;53.250;10.410;2024-01-27T10:55:06;13.10;;;4.00;;
13388;SDS011;6764;53.250;10.410;2024-01-27T10:57:34;14.13;;;4.68;;
13388;SDS011;6764;53.250;10.410;2024-01-27T11:00:02;14.43;;;4.80;;
13388;SDS011;6764;53.250;10.410;2024-01-27T11:02:35;18.30;;;4.87;;
13388;SDS011;6764;53.250;10.410;2024-01-27T11:05:04;19.90;;;4.75;;
13388;SDS011;6764;53.250;10.410;2024-01-27T11:07:32;15.97;;;4.70;;
13388;SDS011;6764;53.250;10.410;2024-01-27T11:09:59;17.90;;;5.13;;
13388;SDS011;6764;53.250;10.410;2024-01-27T11:12:25;23.23;;;10.40;;
13388;SDS011;6764;53.250;10.410;2024-01-27T11:14:51;21.65;;;9.98;;
13388;SDS011;6764;53.250;10.410;2024-01-27T11:17:18;16.40;;;5.33;;
13388;SDS011;6764;53.250;10.410;2024-01-27T11:19:44;16.95;;;4.22;;
13388;SDS011;6764;53.250;10.410;2024-01-27T11:24:51;17.30;;;6.82;;
13388;SDS011;6764;53.250;10.410;2024-01-27T11:27:17;16.13;;;5.55;;
13388;SDS011;6764;53.250;10.410;2024-01-27T11:29:48;15.30;;;6.45;;
13388;SDS011;6764;53.250;10.410;2024-01-27T11:32:15;15.55;;;5.05;;
13388;SDS011;6764;53.250;10.410;2024-01-27T11:34:43;16.40;;;4.93;;
13388;SDS011;6764;53.250;10.410;2024-01-27T11:37:10;17.52;;;4.57;;
13388;SDS011;6764;53.250;10.410;2024-01-27T11:39:40;17.20;;;5.13;;
13388;SDS011;6764;53.250;10.410;2024-01-27T11:42:06;15.07;;;4.85;;
13388;SDS011;6764;53.250;10.410;2024-01-27T11:44:38;16.40;;;4.75;;
13388;SDS011;6764;53.250;10.410;2024-01-27T11:47:05;18.13;;;4.72;;
13388;SDS011;6764;53.250;10.410;2024-01-27T11:49:40;13.40;;;4.67;;
13388;SDS011;6764;53.250;10.410;2024-01-27T11:52:07;15.35;;;5.07;;
13388;SDS011;6764;53.250;10.410;2024-01-27T11:54:33;12.73;;;5.10;;
13388;SDS011;6764;53.250;10.410;2024-01-27T11:56:59;15.40;;;5.18;;
13388;SDS011;6764;53.250;10.410;2024-01-27T11:59:26;17.10;;;4.60;;
13388;SDS011;6764;53.250;10.410;2024-01-27T12:01:52;14.88;;;4.35;;
13388;SDS011;6764;53.250;10.410;2024-01-27T12:04:18;16.80;;;4.90;;
13388;SDS011;6764;53.250;10.410;2024-01-27T12:06:44;12.27;;;4.47;;
13388;SDS011;6764;53.250;10.410;2024-01-27T12:09:10;14.20;;;4.80;;
13388;SDS011;6764;53.250;10.410;2024-01-27T12:11:40;15.57;;;5.65;;
13388;SDS011;6764;53.250;10.410;2024-01-27T12:14:06;17.33;;;5.03;;
13388;SDS011;6764;53.250;10.410;2024-01-27T12:16:31;22.52;;;6.07;;
13388;SDS011;6764;53.250;10.410;2024-01-27T12:18:57;16.70;;;4.88;;
13388;SDS011;6764;53.250;10.410;2024-01-27T12:21:23;19.07;;;5.00;;
13388;SDS011;6764;53.250;10.410;2024-01-27T12:23:52;16.20;;;5.27;;
13388;SDS011;6764;53.250;10.410;2024-01-27T12:26:22;17.77;;;4.95;;
13388;SDS011;6764;53.250;10.410;2024-01-27T12:28:49;13.63;;;4.70;;
13388;SDS011;6764;53.250;10.410;2024-01-27T12:31:15;12.20;;;4.20;;
13388;SDS011;6764;53.250;10.410;2024-01-27T12:33:49;13.27;;;4.03;;
13388;SDS011;6764;53.250;10.410;2024-01-27T12:36:21;16.95;;;4.93;;
13388;SDS011;6764;53.250;10.410;2024-01-27T12:39:09;13.60;;;4.67;;
13388;SDS011;6764;53.250;10.410;2024-01-27T12:41:34;19.67;;;5.68;;
13388;SDS011;6764;53.250;10.410;2024-01-27T12:44:00;17.65;;;4.82;;
13388;SDS011;6764;53.250;10.410;2024-01-27T12:46:26;15.65;;;5.30;;
13388;SDS011;6764;53.250;10.410;2024-01-27T12:48:56;11.67;;;4.50;;
13388;SDS011;6764;53.250;10.410;2024-01-27T12:51:22;13.87;;;4.30;;
13388;SDS011;6764;53.250;10.410;2024-01-27T12:53:47;13.82;;;4.65;;
13388;SDS011;6764;53.250;10.410;2024-01-27T12:56:13;17.97;;;5.10;;
13388;SDS011;6764;53.250;10.410;2024-01-27T12:58:40;15.50;;;4.95;;
13388;SDS011;6764;53.250;10.410;2024-01-27T13:01:07;20.05;;;5.88;;
13388;SDS011;6764;53.250;10.410;2024-01-27T13:03:33;16.90;;;4.90;;
13388;SDS011;6764;53.250;10.410;2024-01-27T13:06:00;17.02;;;6.03;;
13388;SDS011;6764;53.250;10.410;2024-01-27T13:08:26;14.57;;;4.77;;
13388;SDS011;6764;53.250;10.410;2024-01-27T13:10:52;14.55;;;4.70;;
13388;SDS011;6764;53.250;10.410;2024-01-27T13:13:18;13.60;;;3.97;;
13388;SDS011;6764;53.250;10.410;2024-01-27T13:15:44;16.90;;;4.63;;
13388;SDS011;6764;53.250;10.410;2024-01-27T13:18:09;15.87;;;5.13;;
13388;SDS011;6764;53.250;10.410;2024-01-27T13:20:36;13.83;;;4.63;;
13388;SDS011;6764;53.250;10.410;2024-01-27T13:23:02;16.88;;;5.15;;
13388;SDS011;6764;53.250;10.410;2024-01-27T13:25:28;16.80;;;5.03;;
13388;SDS011;6764;53.250;10.410;2024-01-27T13:27:53;17.97;;;5.93;;
13388;SDS011;6764;53.250;10.410;2024-01-27T13:30:20;23.77;;;7.00;;
13388;SDS011;6764;53.250;10.410;2024-01-27T13:32:46;14.90;;;4.47;;
13388;SDS011;6764;53.250;10.410;2024-01-27T13:35:12;17.23;;;4.70;;
13388;SDS011;6764;53.250;10.410;2024-01-27T13:37:38;18.90;;;4.97;;
13388;SDS011;6764;53.250;10.410;2024-01-27T13:40:04;15.30;;;5.00;;
13388;SDS011;6764;53.250;10.410;2024-01-27T13:42:32;13.27;;;4.35;;
13388;SDS011;6764;53.250;10.410;2024-01-27T13:44:58;15.27;;;4.40;;
13388;SDS011;6764;53.250;10.410;2024-01-27T13:47:24;18.07;;;4.53;;
13388;SDS011;6764;53.250;10.410;2024-01-27T13:49:49;14.50;;;4.60;;
13388;SDS011;6764;53.250;10.410;2024-01-27T13:52:15;13.40;;;4.45;;
13388;SDS011;6764;53.250;10.410;2024-01-27T13:54:41;18.88;;;8.25;;
13388;SDS011;6764;53.250;10.410;2024-01-27T13:57:07;16.17;;;4.30;;
13388;SDS011;6764;53.250;10.410;2024-01-27T13:59:33;20.38;;;4.90;;
13388;SDS011;6764;53.250;10.410;2024-01-27T14:01:59;14.93;;;4.95;;
13388;SDS011;6764;53.250;10.410;2024-01-27T14:04:25;16.00;;;5.30;;
13388;SDS011;6764;53.250;10.410;2024-01-27T14:06:51;15.15;;;4.68;;
13388;SDS011;6764;53.250;10.410;2024-01-27T14:09:18;17.10;;;4.68;;
13388;SDS011;6764;53.250;10.410;2024-01-27T14:11:47;13.20;;;4.30;;
13388;SDS011;6764;53.250;10.410;2024-01-27T14:14:12;18.88;;;4.40;;
13388;SDS011;6764;53.250;10.410;2024-01-27T14:16:38;19.33;;;5.57;;
13388;SDS011;6764;53.250;10.410;2024-01-27T14:19:04;19.48;;;5.10;;
13388;SDS011;6764;53.250;10.410;2024-01-27T14:21:31;18.20;;;5.38;;
13388;SDS011;6764;53.250;10.410;2024-01-27T14:23:57;15.90;;;5.10;;
13388;SDS011;6764;53.250;10.410;2024-01-27T14:26:28;14.05;;;5.40;;
13388;SDS011;6764;53.250;10.410;2024-01-27T14:28:54;14.30;;;4.78;;
13388;SDS011;6764;53.250;10.410;2024-01-27T14:31:20;16.52;;;4.50;;